createdAt,value
2022-11-21T00:01:21.022Z,3.08
2022-11-21T00:03:49.009Z,3.02
2022-11-21T00:06:17.550Z,3.01
2022-11-21T00:08:45.556Z,2.96
2022-11-21T00:11:13.695Z,2.92
2022-11-21T00:13:41.854Z,2.90
2022-11-21T00:16:15.033Z,2.88
2022-11-21T00:18:44.105Z,2.85
2022-11-21T00:21:17.134Z,2.81
2022-11-21T00:23:45.576Z,2.76
2022-11-21T00:26:14.839Z,2.75
2022-11-21T00:28:42.563Z,2.73
2022-11-21T00:31:17.866Z,2.70
2022-11-21T00:33:45.980Z,2.68
2022-11-21T00:36:13.440Z,2.67
2022-11-21T00:38:40.914Z,2.63
2022-11-21T00:41:08.478Z,2.60
2022-11-21T00:43:36.082Z,2.56
2022-11-21T00:46:04.418Z,2.54
2022-11-21T00:48:33.013Z,2.51
2022-11-21T00:51:01.181Z,2.50
2022-11-21T00:53:29.229Z,2.48
2022-11-21T00:55:57.734Z,2.46
2022-11-21T00:58:25.768Z,2.44
2022-11-21T01:01:01.785Z,2.43
2022-11-21T01:03:29.467Z,2.41
2022-11-21T01:06:01.629Z,2.40
2022-11-21T01:08:29.475Z,2.39
2022-11-21T01:10:57.021Z,2.39
2022-11-21T01:13:24.546Z,2.37
2022-11-21T01:15:52.097Z,2.34
2022-11-21T01:18:19.661Z,2.34
2022-11-21T01:20:47.136Z,2.33
2022-11-21T01:23:14.617Z,2.30
2022-11-21T01:25:42.043Z,2.29
2022-11-21T01:28:09.601Z,2.27
2022-11-21T01:30:37.060Z,2.25
2022-11-21T01:33:04.595Z,2.22
2022-11-21T01:35:32.466Z,2.20
2022-11-21T01:37:59.969Z,2.19
2022-11-21T01:40:27.466Z,2.16
2022-11-21T01:43:03.494Z,2.15
2022-11-21T01:46:04.996Z,2.15
2022-11-21T01:48:58.602Z,2.14
2022-11-21T01:51:45.449Z,2.11
2022-11-21T01:54:25.991Z,2.07
2022-11-21T01:57:03.633Z,2.07
2022-11-21T01:59:55.688Z,2.06
2022-11-21T02:02:27.834Z,2.03
2022-11-21T02:04:56.783Z,2.02
2022-11-21T02:07:26.542Z,2.00
2022-11-21T02:09:59.140Z,2.00
2022-11-21T02:12:32.626Z,1.99
2022-11-21T02:15:00.744Z,1.98
2022-11-21T02:17:31.834Z,1.99
2022-11-21T02:20:12.523Z,1.99
2022-11-21T02:23:17.269Z,1.97
2022-11-21T02:25:45.544Z,1.96
2022-11-21T02:28:16.698Z,1.94
2022-11-21T02:30:44.410Z,1.93
2022-11-21T02:33:13.095Z,1.92
2022-11-21T02:35:41.236Z,1.92
2022-11-21T02:38:21.599Z,1.91
2022-11-21T02:40:55.215Z,1.92
2022-11-21T02:43:52.343Z,1.91
2022-11-21T02:46:19.834Z,1.92
2022-11-21T02:48:47.554Z,1.92
2022-11-21T02:51:15.109Z,1.95
2022-11-21T02:53:43.478Z,1.96
2022-11-21T02:56:10.990Z,1.99
2022-11-21T02:58:38.622Z,1.99
2022-11-21T03:01:06.268Z,2.00
2022-11-21T03:03:33.747Z,2.01
2022-11-21T03:06:01.296Z,2.02
2022-11-21T03:08:28.870Z,2.06
2022-11-21T03:10:56.383Z,2.10
2022-11-21T03:13:23.897Z,2.12
2022-11-21T03:15:52.118Z,2.16
2022-11-21T03:18:19.592Z,2.19
2022-11-21T03:20:47.180Z,2.21
2022-11-21T03:23:14.614Z,2.24
2022-11-21T03:25:42.223Z,2.28
2022-11-21T03:28:09.685Z,2.29
2022-11-21T03:30:37.177Z,2.32
2022-11-21T03:33:04.769Z,2.34
2022-11-21T03:35:32.378Z,2.36
2022-11-21T03:37:59.925Z,2.40
2022-11-21T03:40:27.413Z,2.43
2022-11-21T03:42:55.148Z,2.45
2022-11-21T03:45:22.735Z,2.51
2022-11-21T03:47:50.293Z,2.57
2022-11-21T03:50:21.101Z,2.63
2022-11-21T03:52:48.628Z,2.67
2022-11-21T03:55:16.277Z,2.70
2022-11-21T03:57:43.757Z,2.73
2022-11-21T04:00:12.097Z,2.76
2022-11-21T04:02:39.725Z,2.77
2022-11-21T04:05:07.455Z,2.79
2022-11-21T04:07:35.032Z,2.81
2022-11-21T04:10:02.535Z,2.84
2022-11-21T04:12:30.077Z,2.84
2022-11-21T04:14:57.569Z,2.85
2022-11-21T04:17:25.119Z,2.84
2022-11-21T04:19:52.635Z,2.83
2022-11-21T04:22:20.285Z,2.84
2022-11-21T04:24:47.745Z,2.85
2022-11-21T04:27:15.264Z,2.85
2022-11-21T04:29:42.706Z,2.85
2022-11-21T04:32:10.181Z,2.83
2022-11-21T04:34:39.706Z,2.84
2022-11-21T04:37:11.422Z,2.85
2022-11-21T04:39:39.429Z,2.84
2022-11-21T04:42:06.888Z,2.80
2022-11-21T04:44:34.394Z,2.81
2022-11-21T04:47:05.398Z,2.79
2022-11-21T04:49:33.306Z,2.77
2022-11-21T04:52:00.776Z,2.74
2022-11-21T04:54:28.578Z,2.72
2022-11-21T04:56:56.373Z,2.71
2022-11-21T04:59:23.918Z,2.69
2022-11-21T05:01:51.374Z,2.69
2022-11-21T05:04:18.962Z,2.67
2022-11-21T05:06:46.569Z,2.68
2022-11-21T05:09:14.105Z,2.67
2022-11-21T05:12:00.315Z,2.68
2022-11-21T05:14:28.113Z,2.67
2022-11-21T05:16:55.882Z,2.68
2022-11-21T05:19:23.354Z,2.65
2022-11-21T05:21:50.887Z,2.66
2022-11-21T05:24:18.453Z,2.64
2022-11-21T05:26:45.969Z,2.64
2022-11-21T05:29:13.538Z,2.65
2022-11-21T05:31:41.036Z,2.65
2022-11-21T05:34:08.959Z,2.66
2022-11-21T05:36:36.517Z,2.66
2022-11-21T05:39:04.301Z,2.66
2022-11-21T05:41:31.890Z,2.65
2022-11-21T05:44:00.012Z,2.64
2022-11-21T05:46:27.569Z,2.65
2022-11-21T05:48:55.478Z,2.64
2022-11-21T05:51:23.258Z,2.63
2022-11-21T05:53:50.875Z,2.62
2022-11-21T05:56:19.852Z,2.60
2022-11-21T05:58:47.787Z,2.59
2022-11-21T06:01:15.788Z,2.58
2022-11-21T06:03:43.367Z,2.58
2022-11-21T06:06:19.683Z,2.54
2022-11-21T06:08:49.809Z,2.52
2022-11-21T06:11:17.531Z,2.49
2022-11-21T06:13:45.117Z,2.47
2022-11-21T06:16:15.090Z,2.45
2022-11-21T06:18:47.916Z,2.45
2022-11-21T06:21:18.952Z,2.45
2022-11-21T06:23:47.417Z,2.45
2022-11-21T06:26:17.138Z,2.46
2022-11-21T06:28:45.488Z,2.47
2022-11-21T06:31:14.623Z,2.49
2022-11-21T06:33:43.523Z,2.49
2022-11-21T06:36:16.714Z,2.50
2022-11-21T06:38:44.779Z,2.51
2022-11-21T06:41:38.663Z,2.52
2022-11-21T06:44:06.275Z,2.52
2022-11-21T06:46:33.789Z,2.55
2022-11-21T06:49:01.515Z,2.58
2022-11-21T06:51:29.001Z,2.59
2022-11-21T06:53:59.207Z,2.60
2022-11-21T06:56:29.933Z,2.62
2022-11-21T06:58:58.649Z,2.64
2022-11-21T07:01:26.849Z,2.66
2022-11-21T07:03:54.839Z,2.66
2022-11-21T07:06:23.242Z,2.68
2022-11-21T07:09:17.661Z,2.70
2022-11-21T07:11:42.556Z,2.71
2022-11-21T07:14:10.513Z,2.71
2022-11-21T07:16:38.499Z,2.71
2022-11-21T07:19:05.982Z,2.73
2022-11-21T07:21:33.639Z,2.72
2022-11-21T07:24:01.201Z,2.73
2022-11-21T07:26:28.715Z,2.76
2022-11-21T07:28:56.181Z,2.77
2022-11-21T07:31:23.729Z,2.79
2022-11-21T07:33:51.231Z,2.82
2022-11-21T07:36:18.775Z,2.84
2022-11-21T07:38:46.767Z,2.84
2022-11-21T07:41:14.331Z,2.85
2022-11-21T07:43:41.895Z,2.88
2022-11-21T07:46:09.444Z,2.90
2022-11-21T07:48:36.940Z,2.92
2022-11-21T07:51:05.456Z,2.91
2022-11-21T07:53:33.238Z,2.93
2022-11-21T07:56:00.930Z,2.94
2022-11-21T07:58:29.137Z,2.95
2022-11-21T08:00:57.265Z,2.96
2022-11-21T08:03:25.450Z,2.99
2022-11-21T08:05:53.076Z,3.00
2022-11-21T08:08:20.624Z,3.03
2022-11-21T08:10:48.545Z,3.07
2022-11-21T08:13:16.031Z,3.08
2022-11-21T08:15:43.552Z,3.09
2022-11-21T08:18:13.964Z,3.11
2022-11-21T08:20:42.790Z,3.13
2022-11-21T08:23:11.100Z,3.15
2022-11-21T08:25:40.032Z,3.17
2022-11-21T08:28:08.975Z,3.18
2022-11-21T08:30:37.762Z,3.21
2022-11-21T08:33:06.198Z,3.24
2022-11-21T08:35:36.574Z,3.28
2022-11-21T08:38:04.366Z,3.30
2022-11-21T08:40:32.835Z,3.33
2022-11-21T08:43:02.684Z,3.36
2022-11-21T08:45:30.898Z,3.37
2022-11-21T08:47:58.562Z,3.40
2022-11-21T08:50:28.062Z,3.41
2022-11-21T08:53:02.370Z,3.43
2022-11-21T08:55:31.133Z,3.44
2022-11-21T08:57:59.130Z,3.45
2022-11-21T09:00:27.203Z,3.47
2022-11-21T09:02:55.460Z,3.48
2022-11-21T09:05:23.079Z,3.50
2022-11-21T09:07:57.500Z,3.54
2022-11-21T09:10:29.124Z,3.57
2022-11-21T09:13:00.132Z,3.59
2022-11-21T09:15:46.283Z,3.62
2022-11-21T09:18:13.844Z,3.65
2022-11-21T09:20:43.468Z,3.66
2022-11-21T09:23:13.430Z,3.71
2022-11-21T09:25:41.796Z,3.77
2022-11-21T09:28:10.879Z,3.81
2022-11-21T09:30:39.087Z,3.86
2022-11-21T09:33:19.528Z,3.92
2022-11-21T09:35:48.021Z,3.96
2022-11-21T09:38:19.745Z,4.03
2022-11-21T09:40:50.074Z,4.09
2022-11-21T09:43:55.499Z,4.15
2022-11-21T09:46:30.519Z,4.20
2022-11-21T09:49:07.678Z,4.26
2022-11-21T09:51:39.116Z,4.33
2022-11-21T09:54:12.901Z,4.43
2022-11-21T09:56:44.691Z,4.52
2022-11-21T09:59:12.402Z,4.62
2022-11-21T10:01:40.101Z,4.71
2022-11-21T10:04:08.234Z,4.77
2022-11-21T10:06:56.761Z,4.85
2022-11-21T10:09:48.262Z,4.91
2022-11-21T10:12:39.949Z,5.02
2022-11-21T10:15:35.543Z,5.10
2022-11-21T10:18:31.292Z,5.14
2022-11-21T10:21:37.522Z,5.22
2022-11-21T10:24:14.182Z,5.25
2022-11-21T10:27:04.716Z,5.27
2022-11-21T10:29:37.150Z,5.27
2022-11-21T10:32:31.280Z,5.30
2022-11-21T10:35:23.991Z,5.27
2022-11-21T10:38:01.200Z,5.34
2022-11-21T10:40:44.376Z,5.51
2022-11-21T10:43:53.812Z,5.59
2022-11-21T10:46:21.561Z,5.69
2022-11-21T10:49:13.185Z,5.71
2022-11-21T10:51:56.515Z,5.70
2022-11-21T10:54:33.121Z,5.77
2022-11-21T10:57:14.039Z,5.85
2022-11-21T11:00:05.880Z,6.02
2022-11-21T11:03:17.568Z,6.13
2022-11-21T11:05:58.066Z,6.19
2022-11-21T11:08:35.217Z,6.22
2022-11-21T11:11:20.506Z,6.23
2022-11-21T11:14:06.657Z,6.18
2022-11-21T11:16:41.403Z,6.17
2022-11-21T11:19:15.860Z,6.15
2022-11-21T11:22:26.749Z,6.12
2022-11-21T11:25:25.813Z,6.15
2022-11-21T11:27:53.467Z,6.17
2022-11-21T11:33:34.888Z,6.14
2022-11-21T11:36:12.843Z,6.10
2022-11-21T11:38:44.654Z,6.10
2022-11-21T11:41:27.256Z,6.06
2022-11-21T11:44:37.614Z,6.02
2022-11-21T11:47:31.352Z,5.99
2022-11-21T11:53:12.072Z,5.89
2022-11-21T11:56:04.185Z,5.81
2022-11-21T11:59:29.458Z,5.79
2022-11-21T12:02:27.072Z,5.77
2022-11-21T12:05:01.868Z,5.75
2022-11-21T12:10:35.595Z,5.76
2022-11-21T12:13:11.361Z,5.79
2022-11-21T12:15:52.895Z,5.81
2022-11-21T12:18:20.607Z,5.82
2022-11-21T12:20:57.175Z,5.84
2022-11-21T12:23:31.942Z,5.89
2022-11-21T12:25:59.484Z,5.92
2022-11-21T12:28:41.065Z,5.95
2022-11-21T12:31:19.391Z,6.03
2022-11-21T12:33:58.722Z,6.12
2022-11-21T12:36:44.044Z,6.35
2022-11-21T12:39:53.400Z,6.59
2022-11-21T12:42:53.225Z,6.96
2022-11-21T12:45:32.413Z,7.20
2022-11-21T12:48:47.135Z,7.38
2022-11-21T12:51:39.549Z,7.69
2022-11-21T12:54:31.898Z,8.07
2022-11-21T12:57:11.858Z,8.34
2022-11-21T13:00:04.165Z,8.61
2022-11-21T13:02:50.419Z,9.05
2022-11-21T13:05:29.290Z,9.34
2022-11-21T13:08:24.461Z,9.58
2022-11-21T13:11:44.786Z,9.92
2022-11-21T13:14:17.224Z,10.30
2022-11-21T13:16:54.390Z,10.60
2022-11-21T13:19:28.203Z,10.75
2022-11-21T13:21:55.961Z,10.60
2022-11-21T13:24:59.107Z,10.26
2022-11-21T13:27:34.806Z,10.13
2022-11-21T13:30:07.200Z,9.96
2022-11-21T13:32:38.648Z,9.87
2022-11-21T13:35:15.299Z,9.79
2022-11-21T13:38:03.955Z,9.79
2022-11-21T13:40:38.319Z,9.71
2022-11-21T13:43:32.794Z,9.44
2022-11-21T13:45:59.369Z,9.23
2022-11-21T13:48:36.618Z,9.20
2022-11-21T13:51:30.818Z,9.08
2022-11-21T13:54:07.793Z,8.78
2022-11-21T13:57:00.299Z,8.42
2022-11-21T14:00:03.505Z,8.07
2022-11-21T14:03:07.182Z,7.80
2022-11-21T14:05:56.068Z,7.68
2022-11-21T14:08:26.876Z,7.59
2022-11-21T14:10:56.495Z,7.49
2022-11-21T14:13:37.368Z,7.31
2022-11-21T14:16:47.127Z,7.16
2022-11-21T14:19:19.887Z,7.02
2022-11-21T14:21:49.197Z,6.92
2022-11-21T14:24:19.695Z,6.86
2022-11-21T14:26:51.004Z,6.78
2022-11-21T14:29:38.367Z,6.76
2022-11-21T14:32:06.366Z,6.72
2022-11-21T14:34:33.907Z,6.71
2022-11-21T14:37:06.209Z,6.69
2022-11-21T14:39:43.754Z,6.71
2022-11-21T14:42:17.915Z,6.68
2022-11-21T14:44:45.558Z,6.68
2022-11-21T14:47:25.105Z,6.70
2022-11-21T14:49:59.620Z,6.72
2022-11-21T14:52:32.926Z,6.72
2022-11-21T14:55:29.191Z,6.70
2022-11-21T14:57:55.535Z,6.65
2022-11-21T15:03:22.482Z,6.56
2022-11-21T15:06:05.065Z,6.55
2022-11-21T15:11:57.405Z,6.57
2022-11-21T15:14:29.462Z,6.53
2022-11-21T15:16:58.576Z,6.53
2022-11-21T15:19:29.105Z,6.52
2022-11-21T15:21:59.379Z,6.54
2022-11-21T15:24:43.410Z,6.49
2022-11-21T15:27:26.315Z,6.47
2022-11-21T15:30:05.844Z,6.49
2022-11-21T15:32:33.422Z,6.51
2022-11-21T15:35:36.315Z,6.50
2022-11-21T15:38:22.452Z,6.53
2022-11-21T15:41:09.704Z,6.49
2022-11-21T15:43:48.969Z,6.53
2022-11-21T15:46:19.788Z,6.55
2022-11-21T15:48:48.524Z,6.53
2022-11-21T15:51:20.371Z,6.52
2022-11-21T15:53:52.381Z,6.52
2022-11-21T15:56:23.120Z,6.52
2022-11-21T15:58:51.288Z,6.52
2022-11-21T16:01:21.378Z,6.53
2022-11-21T16:03:50.928Z,6.52
2022-11-21T16:06:19.324Z,6.52
2022-11-21T16:08:47.469Z,6.51
2022-11-21T16:11:17.887Z,6.50
2022-11-21T16:13:49.636Z,6.51
2022-11-21T16:16:17.810Z,6.53
2022-11-21T16:18:45.365Z,6.54
2022-11-21T16:21:13.811Z,6.51
2022-11-21T16:23:41.846Z,6.51
2022-11-21T16:26:10.643Z,6.49
2022-11-21T16:28:38.545Z,6.48
2022-11-21T16:31:07.218Z,6.47
2022-11-21T16:33:35.821Z,6.47
2022-11-21T16:36:03.531Z,6.47
2022-11-21T16:38:31.483Z,6.46
2022-11-21T16:41:05.450Z,6.45
2022-11-21T16:43:33.176Z,6.45
2022-11-21T16:46:08.964Z,6.40
2022-11-21T16:48:36.630Z,6.41
2022-11-21T16:51:12.586Z,6.43
2022-11-21T16:53:41.668Z,6.42
2022-11-21T16:56:10.095Z,6.40
2022-11-21T16:58:38.966Z,6.38
2022-11-21T17:01:38.829Z,6.35
2022-11-21T17:04:06.566Z,6.36
2022-11-21T17:06:34.356Z,6.37
2022-11-21T17:09:02.746Z,6.36
2022-11-21T17:11:32.151Z,6.35
2022-11-21T17:14:01.969Z,6.38
2022-11-21T17:16:30.408Z,6.40
2022-11-21T17:19:00.484Z,6.41
2022-11-21T17:21:29.404Z,6.43
2022-11-21T17:23:57.243Z,6.46
2022-11-21T17:26:27.770Z,6.46
2022-11-21T17:28:58.112Z,6.44
2022-11-21T17:31:25.949Z,6.44
2022-11-21T17:33:55.696Z,6.44
2022-11-21T17:36:25.377Z,6.45
2022-11-21T17:38:53.636Z,6.45
2022-11-21T17:41:22.714Z,6.45
2022-11-21T17:43:54.356Z,6.47
2022-11-21T17:46:22.412Z,6.50
2022-11-21T17:48:54.905Z,6.51
2022-11-21T17:51:26.927Z,6.52
2022-11-21T17:53:55.113Z,6.51
2022-11-21T17:56:25.199Z,6.54
2022-11-21T17:58:53.077Z,6.53
2022-11-21T18:01:21.115Z,6.53
2022-11-21T18:03:54.536Z,6.54
2022-11-21T18:06:22.426Z,6.54
2022-11-21T18:08:51.067Z,6.53
2022-11-21T18:11:23.893Z,6.54
2022-11-21T18:13:51.462Z,6.55
2022-11-21T18:16:21.754Z,6.59
2022-11-21T18:18:50.512Z,6.59
2022-11-21T18:21:20.638Z,6.61
2022-11-21T18:23:49.650Z,6.61
2022-11-21T18:26:29.181Z,6.60
2022-11-21T18:29:20.743Z,6.58
2022-11-21T18:31:46.996Z,6.57
2022-11-21T18:34:14.784Z,6.57
2022-11-21T18:36:42.561Z,6.59
2022-11-21T18:39:14.533Z,6.59
2022-11-21T18:41:44.171Z,6.56
2022-11-21T18:44:20.035Z,6.51
2022-11-21T18:46:49.530Z,6.44
2022-11-21T18:49:17.978Z,6.41
2022-11-21T18:51:45.829Z,6.37
2022-11-21T18:54:13.394Z,6.36
2022-11-21T18:56:41.062Z,6.33
2022-11-21T18:59:08.717Z,6.30
2022-11-21T19:01:39.510Z,6.28
2022-11-21T19:04:07.411Z,6.26
2022-11-21T19:06:35.407Z,6.26
2022-11-21T19:09:03.880Z,6.24
2022-11-21T19:11:31.680Z,6.24
2022-11-21T19:14:00.904Z,6.24
2022-11-21T19:16:34.581Z,6.23
2022-11-21T19:21:54.487Z,6.23
2022-11-21T19:24:22.190Z,6.22
2022-11-21T19:26:50.713Z,6.23
2022-11-21T19:29:19.412Z,6.23
2022-11-21T19:31:47.129Z,6.23
2022-11-21T19:34:15.790Z,6.23
2022-11-21T19:36:44.789Z,6.24
2022-11-21T19:39:13.156Z,6.25
2022-11-21T19:41:40.826Z,6.26
2022-11-21T19:44:08.589Z,6.30
2022-11-21T19:46:38.707Z,6.31
2022-11-21T19:49:08.043Z,6.32
2022-11-21T19:51:38.030Z,6.34
2022-11-21T19:54:07.581Z,6.36
2022-11-21T19:56:35.779Z,6.36
2022-11-21T19:59:04.273Z,6.38
2022-11-21T20:01:33.668Z,6.41
2022-11-21T20:04:03.581Z,6.42
2022-11-21T20:06:46.064Z,6.42
2022-11-21T20:09:19.992Z,6.43
2022-11-21T20:11:50.031Z,6.45
2022-11-21T20:14:22.207Z,6.46
2022-11-21T20:16:51.350Z,6.46
2022-11-21T20:19:21.167Z,6.47
2022-11-21T20:21:48.984Z,6.48
2022-11-21T20:24:17.310Z,6.48
2022-11-21T20:26:45.677Z,6.49
2022-11-21T20:29:14.080Z,6.49
2022-11-21T20:31:43.253Z,6.51
2022-11-21T20:34:12.874Z,6.51
2022-11-21T20:36:41.378Z,6.51
2022-11-21T20:39:14.457Z,6.52
2022-11-21T20:41:42.407Z,6.52
2022-11-21T20:47:04.527Z,6.51
2022-11-21T20:49:33.083Z,6.52
2022-11-21T20:54:48.425Z,6.53
2022-11-21T20:57:15.998Z,6.53
2022-11-21T20:59:43.915Z,6.52
2022-11-21T21:02:15.006Z,6.50
2022-11-21T21:04:42.691Z,6.49
2022-11-21T21:07:10.628Z,6.48
2022-11-21T21:09:38.389Z,6.45
2022-11-21T21:12:06.189Z,6.47
2022-11-21T21:14:33.866Z,6.46
2022-11-21T21:17:01.551Z,6.44
2022-11-21T21:19:29.433Z,6.45
2022-11-21T21:21:57.269Z,6.46
2022-11-21T21:24:25.165Z,6.48
2022-11-21T21:26:52.843Z,6.50
2022-11-21T21:29:21.292Z,6.50
2022-11-21T21:31:52.852Z,6.51
2022-11-21T21:34:22.542Z,6.53
2022-11-21T21:36:51.276Z,6.54
2022-11-21T21:39:19.194Z,6.55
2022-11-21T21:41:47.729Z,6.56
2022-11-21T21:44:16.467Z,6.58
2022-11-21T21:46:44.652Z,6.59
2022-11-21T21:49:12.518Z,6.60
2022-11-21T21:51:40.443Z,6.60
2022-11-21T21:54:16.516Z,6.60
2022-11-21T21:56:46.669Z,6.63
2022-11-21T21:59:15.152Z,6.65
2022-11-21T22:01:43.079Z,6.66
2022-11-21T22:04:12.669Z,6.68
2022-11-21T22:06:40.371Z,6.70
2022-11-21T22:09:07.964Z,6.71
2022-11-21T22:11:40.109Z,6.73
2022-11-21T22:14:13.233Z,6.75
2022-11-21T22:16:41.997Z,6.79
2022-11-21T22:19:10.162Z,6.81
2022-11-21T22:21:38.600Z,6.84
2022-11-21T22:24:28.506Z,6.86
2022-11-21T22:26:56.331Z,6.87
2022-11-21T22:29:24.341Z,6.89
2022-11-21T22:31:52.143Z,6.90
2022-11-21T22:34:19.907Z,6.92
2022-11-21T22:36:47.842Z,6.95
2022-11-21T22:39:16.050Z,6.95
2022-11-21T22:41:43.741Z,6.96
2022-11-21T22:44:11.389Z,6.97
2022-11-21T22:46:38.977Z,6.98
2022-11-21T22:49:06.480Z,7.00
2022-11-21T22:51:34.780Z,7.00
2022-11-21T22:54:02.270Z,7.00
2022-11-21T22:56:29.873Z,7.00
2022-11-21T22:58:57.391Z,7.00
2022-11-21T23:01:26.268Z,7.00
2022-11-21T23:03:55.815Z,7.00
2022-11-21T23:06:25.980Z,7.00
2022-11-21T23:08:54.846Z,6.98
2022-11-21T23:11:28.257Z,6.99
2022-11-21T23:13:57.040Z,7.00
2022-11-21T23:16:25.749Z,6.98
2022-11-21T23:18:54.309Z,6.98
2022-11-21T23:21:22.521Z,6.96
2022-11-21T23:23:50.194Z,6.91
2022-11-21T23:26:17.859Z,6.89
2022-11-21T23:28:45.999Z,6.85
2022-11-21T23:31:13.791Z,6.85
2022-11-21T23:33:41.572Z,6.83
2022-11-21T23:36:09.201Z,6.81
2022-11-21T23:38:36.809Z,6.79
2022-11-21T23:41:04.504Z,6.76
2022-11-21T23:43:32.147Z,6.75
2022-11-21T23:46:00.028Z,6.73
2022-11-21T23:48:28.512Z,6.75
2022-11-21T23:50:56.141Z,6.75
2022-11-21T23:53:23.786Z,6.75
2022-11-21T23:55:51.397Z,6.73
2022-11-21T23:58:19.030Z,6.72
